createdAt,value
2022-09-03T00:00:13.498Z,101124.25
2022-09-03T00:02:45.773Z,101127.56
2022-09-03T00:05:18.459Z,101126.72
2022-09-03T00:07:55.707Z,101115.50
2022-09-03T00:10:38.101Z,101120.03
2022-09-03T00:13:08.653Z,101115.72
2022-09-03T00:15:38.170Z,101113.16
2022-09-03T00:18:10.121Z,101115.88
2022-09-03T00:20:43.978Z,101097.75
2022-09-03T00:23:19.566Z,101113.38
2022-09-03T00:25:57.174Z,101100.31
2022-09-03T00:28:30.219Z,101108.28
2022-09-03T00:31:08.712Z,101101.31
2022-09-03T00:33:38.805Z,101094.53
2022-09-03T00:36:30.207Z,101102.22
2022-09-03T00:38:59.387Z,101097.97
2022-09-03T00:41:41.376Z,101097.97
2022-09-03T00:44:27.131Z,101100.69
2022-09-03T00:47:10.950Z,101097.19
2022-09-03T00:49:59.504Z,101101.72
2022-09-03T00:52:35.142Z,101099.91
2022-09-03T00:55:29.041Z,101091.28
2022-09-03T00:58:30.843Z,101104.47
2022-09-03T01:00:58.318Z,101105.34
2022-09-03T01:03:37.753Z,101108.00
2022-09-03T01:06:42.310Z,101094.91
2022-09-03T01:09:30.209Z,101103.81
2022-09-03T01:12:02.845Z,101110.88
2022-09-03T01:14:58.307Z,101103.81
2022-09-03T01:17:42.899Z,101103.19
2022-09-03T01:20:19.065Z,101098.63
2022-09-03T01:23:04.650Z,101112.50
2022-09-03T01:25:50.800Z,101097.78
2022-09-03T01:28:44.129Z,101103.91
2022-09-03T01:31:21.951Z,101119.66
2022-09-03T01:34:16.045Z,101105.59
2022-09-03T01:36:46.488Z,101105.38
2022-09-03T01:39:40.033Z,101108.00
2022-09-03T01:42:24.499Z,101115.94
2022-09-03T01:45:07.866Z,101112.31
2022-09-03T01:47:49.916Z,101113.19
2022-09-03T01:50:40.649Z,101107.16
2022-09-03T01:53:36.491Z,101110.69
2022-09-03T01:56:38.027Z,101122.84
2022-09-03T01:59:31.624Z,101112.41
2022-09-03T02:02:10.435Z,101108.00
2022-09-03T02:04:37.947Z,101109.06
2022-09-03T02:07:05.986Z,101110.97
2022-09-03T02:09:33.504Z,101101.44
2022-09-03T02:12:15.501Z,101108.63
2022-09-03T02:14:43.829Z,101109.53
2022-09-03T02:17:12.404Z,101098.22
2022-09-03T02:19:40.514Z,101094.84
2022-09-03T02:22:08.046Z,101097.63
2022-09-03T02:24:35.558Z,101083.88
2022-09-03T02:27:03.151Z,101097.63
2022-09-03T02:29:30.816Z,101101.34
2022-09-03T02:31:59.216Z,101104.03
2022-09-03T02:34:26.800Z,101103.34
2022-09-03T02:36:54.494Z,101097.19
2022-09-03T02:39:22.015Z,101095.59
2022-09-03T02:41:56.567Z,101100.09
2022-09-03T02:44:33.877Z,101092.19
2022-09-03T02:47:05.241Z,101090.69
2022-09-03T02:49:34.059Z,101098.78
2022-09-03T02:52:06.358Z,101103.88
2022-09-03T02:54:36.800Z,101096.25
2022-09-03T02:57:04.460Z,101099.88
2022-09-03T02:59:32.752Z,101092.06
2022-09-03T03:02:01.031Z,101102.66
2022-09-03T03:04:30.692Z,101092.34
2022-09-03T03:06:58.203Z,101090.69
2022-09-03T03:09:25.730Z,101094.19
2022-09-03T03:11:55.395Z,101083.81
2022-09-03T03:14:23.516Z,101070.03
2022-09-03T03:16:52.416Z,101078.75
2022-09-03T03:19:19.994Z,101085.78
2022-09-03T03:21:47.460Z,101066.63
2022-09-03T03:24:15.629Z,101074.50
2022-09-03T03:26:43.234Z,101079.75
2022-09-03T03:29:17.250Z,101094.63
2022-09-03T03:31:45.043Z,101091.19
2022-09-03T03:34:12.711Z,101069.59
2022-09-03T03:36:40.315Z,101080.09
2022-09-03T03:39:07.809Z,101087.22
2022-09-03T03:41:38.938Z,101091.56
2022-09-03T03:44:09.137Z,101091.56
2022-09-03T03:46:39.576Z,101088.09
2022-09-03T03:49:08.968Z,101085.47
2022-09-03T03:51:38.012Z,101084.59
2022-09-03T03:54:06.094Z,101088.13
2022-09-03T03:56:34.628Z,101084.72
2022-09-03T03:59:02.181Z,101090.81
2022-09-03T04:01:29.967Z,101088.25
2022-09-03T04:03:59.962Z,101085.69
2022-09-03T04:06:29.182Z,101086.53
2022-09-03T04:08:56.852Z,101084.81
2022-09-03T04:11:25.201Z,101079.56
2022-09-03T04:13:53.760Z,101079.41
2022-09-03T04:16:27.405Z,101088.25
2022-09-03T04:18:56.323Z,101084.81
2022-09-03T04:21:29.054Z,101085.69
2022-09-03T04:23:57.223Z,101088.44
2022-09-03T04:26:27.586Z,101090.06
2022-09-03T04:28:55.141Z,101090.09
2022-09-03T04:31:23.250Z,101088.47
2022-09-03T04:33:51.197Z,101088.56
2022-09-03T04:36:24.166Z,101085.03
2022-09-03T04:38:54.377Z,101081.53
2022-09-03T04:41:25.845Z,101088.56
2022-09-03T04:43:54.695Z,101076.34
2022-09-03T04:46:25.942Z,101065.53
2022-09-03T04:48:55.424Z,101084.25
2022-09-03T04:51:27.181Z,101092.09
2022-09-03T04:53:57.899Z,101082.69
2022-09-03T04:56:27.713Z,101088.72
2022-09-03T04:58:57.608Z,101084.47
2022-09-03T05:01:27.588Z,101089.66
2022-09-03T05:04:01.760Z,101095.00
2022-09-03T05:06:30.895Z,101090.66
2022-09-03T05:08:59.327Z,101088.94
2022-09-03T05:11:28.393Z,101077.66
2022-09-03T05:13:58.871Z,101092.53
2022-09-03T05:16:28.320Z,101085.63
2022-09-03T05:18:59.193Z,101084.59
2022-09-03T05:21:28.462Z,101083.69
2022-09-03T05:23:56.100Z,101076.78
2022-09-03T05:26:30.271Z,101088.22
2022-09-03T05:29:00.927Z,101087.28
2022-09-03T05:31:31.917Z,101083.84
2022-09-03T05:34:02.649Z,101085.47
2022-09-03T05:36:32.690Z,101080.31
2022-09-03T05:39:00.530Z,101080.41
2022-09-03T05:41:29.871Z,101086.50
2022-09-03T05:43:59.316Z,101085.50
2022-09-03T05:46:31.699Z,101083.69
2022-09-03T05:49:01.311Z,101084.56
2022-09-03T05:51:29.738Z,101091.56
2022-09-03T05:53:57.427Z,101089.00
2022-09-03T05:56:27.306Z,101083.63
2022-09-03T05:58:57.361Z,101089.66
2022-09-03T06:01:30.902Z,101084.38
2022-09-03T06:04:09.758Z,101084.38
2022-09-03T06:06:40.112Z,101081.53
2022-09-03T06:09:10.690Z,101089.91
2022-09-03T06:11:39.972Z,101085.69
2022-09-03T06:14:09.571Z,101079.56
2022-09-03T06:16:39.830Z,101086.53
2022-09-03T06:19:09.627Z,101086.53
2022-09-03T06:21:40.050Z,101089.84
2022-09-03T06:24:07.598Z,101079.03
2022-09-03T06:26:35.073Z,101077.94
2022-09-03T06:29:02.577Z,101075.09
2022-09-03T06:31:32.821Z,101071.28
2022-09-03T06:34:04.004Z,101078.75
2022-09-03T06:36:31.978Z,101084.06
2022-09-03T06:39:00.042Z,101074.00
2022-09-03T06:41:31.742Z,101080.69
2022-09-03T06:44:02.267Z,101076.88
2022-09-03T06:46:31.475Z,101077.50
2022-09-03T06:49:00.421Z,101083.41
2022-09-03T06:51:30.176Z,101082.94
2022-09-03T06:54:03.084Z,101065.53
2022-09-03T06:56:37.339Z,101079.22
2022-09-03T06:59:16.379Z,101087.38
2022-09-03T07:01:46.326Z,101086.97
2022-09-03T07:04:16.476Z,101083.81
2022-09-03T07:06:45.248Z,101078.56
2022-09-03T07:09:15.337Z,101081.38
2022-09-03T07:11:47.391Z,101092.25
2022-09-03T07:14:16.242Z,101090.66
2022-09-03T07:16:43.832Z,101075.19
2022-09-03T07:19:13.341Z,101097.09
2022-09-03T07:21:46.746Z,101089.63
2022-09-03T07:24:16.647Z,101090.03
2022-09-03T07:26:46.387Z,101088.56
2022-09-03T07:29:15.740Z,101087.88
2022-09-03T07:31:44.797Z,101094.31
2022-09-03T07:34:16.372Z,101084.56
2022-09-03T07:36:48.719Z,101054.94
2022-09-03T07:39:17.849Z,101091.28
2022-09-03T07:41:46.679Z,101096.34
2022-09-03T07:44:19.560Z,101104.50
2022-09-03T07:46:48.173Z,101100.09
2022-09-03T07:49:15.990Z,101086.53
2022-09-03T07:51:43.653Z,101094.31
2022-09-03T07:54:11.962Z,101097.75
2022-09-03T07:56:41.399Z,101103.72
2022-09-03T07:59:10.119Z,101105.13
2022-09-03T08:01:39.160Z,101094.03
2022-09-03T08:04:10.881Z,101101.78
2022-09-03T08:06:39.419Z,101096.66
2022-09-03T08:09:09.884Z,101113.94
2022-09-03T08:11:39.565Z,101110.69
2022-09-03T08:14:10.495Z,101101.25
2022-09-03T08:16:41.919Z,101106.63
2022-09-03T08:19:09.783Z,101104.44
2022-09-03T08:21:37.650Z,101103.53
2022-09-03T08:24:05.745Z,101111.78
2022-09-03T08:26:46.193Z,101111.56
2022-09-03T08:29:15.421Z,101115.94
2022-09-03T08:31:43.818Z,101111.78
2022-09-03T08:34:11.978Z,101106.28
2022-09-03T08:36:42.652Z,101107.00
2022-09-03T08:39:11.705Z,101113.00
2022-09-03T08:41:55.200Z,101116.72
2022-09-03T08:44:35.871Z,101105.09
2022-09-03T08:47:27.512Z,101114.44
2022-09-03T08:50:04.465Z,101112.75
2022-09-03T08:52:58.526Z,101112.28
2022-09-03T08:55:36.632Z,101108.06
2022-09-03T08:58:07.894Z,101114.88
2022-09-03T09:00:46.632Z,101109.72
2022-09-03T09:03:51.842Z,101112.28
2022-09-03T09:06:42.043Z,101109.91
2022-09-03T09:09:32.633Z,101097.72
2022-09-03T09:12:16.047Z,101100.31
2022-09-03T09:15:35.413Z,101105.88
2022-09-03T09:18:14.882Z,101110.22
2022-09-03T09:20:51.676Z,101101.19
2022-09-03T09:23:36.873Z,101104.41
2022-09-03T09:26:11.150Z,101107.72
2022-09-03T09:28:40.277Z,101110.34
2022-09-03T09:31:15.439Z,101107.19
2022-09-03T09:33:43.674Z,101106.94
2022-09-03T09:36:15.484Z,101101.56
2022-09-03T09:38:45.411Z,101105.41
2022-09-03T09:41:20.151Z,101101.03
2022-09-03T09:43:49.198Z,101104.41
2022-09-03T09:46:22.283Z,101101.09
2022-09-03T09:48:57.516Z,101101.03
2022-09-03T09:51:32.669Z,101102.81
2022-09-03T09:54:16.482Z,101104.53
2022-09-03T09:56:44.583Z,101097.28
2022-09-03T09:59:14.867Z,101103.78
2022-09-03T10:01:44.833Z,101105.09
2022-09-03T10:04:32.856Z,101100.63
2022-09-03T10:07:06.730Z,101103.22
2022-09-03T10:09:34.633Z,101098.38
2022-09-03T10:12:08.002Z,101102.50
2022-09-03T10:14:54.792Z,101094.69
2022-09-03T10:17:36.881Z,101105.34
2022-09-03T10:20:31.183Z,101091.22
2022-09-03T10:23:04.387Z,101090.84
2022-09-03T10:25:53.689Z,101094.06
2022-09-03T10:28:26.819Z,101091.59
2022-09-03T10:31:08.122Z,101089.53
2022-09-03T10:33:44.444Z,101077.72
2022-09-03T10:36:38.502Z,101089.97
2022-09-03T10:39:15.009Z,101082.56
2022-09-03T10:42:13.271Z,101086.50
2022-09-03T10:44:42.111Z,101088.19
2022-09-03T10:47:36.191Z,101088.28
2022-09-03T10:50:17.427Z,101075.78
2022-09-03T10:53:07.673Z,101079.88
2022-09-03T10:56:07.036Z,101078.94
2022-09-03T10:58:58.926Z,101069.06
2022-09-03T11:01:44.130Z,101082.84
2022-09-03T11:04:46.393Z,101072.94
2022-09-03T11:07:15.367Z,101080.41
2022-09-03T11:10:11.614Z,101076.78
2022-09-03T11:12:47.745Z,101082.91
2022-09-03T11:15:34.190Z,101079.53
2022-09-03T11:18:16.034Z,101067.69
2022-09-03T11:20:45.101Z,101068.66
2022-09-03T11:23:15.194Z,101063.22
2022-09-03T11:25:48.970Z,101050.97
2022-09-03T11:28:33.283Z,101046.97
2022-09-03T11:31:42.702Z,101057.16
2022-09-03T11:34:23.290Z,101056.06
2022-09-03T11:37:26.716Z,101054.28
2022-09-03T11:40:08.869Z,101048.81
2022-09-03T11:42:42.056Z,101060.03
2022-09-03T11:45:39.182Z,101061.06
2022-09-03T11:48:31.671Z,101061.09
2022-09-03T11:50:59.169Z,101055.22
2022-09-03T11:53:34.614Z,101037.00
2022-09-03T11:56:18.606Z,101063.75
2022-09-03T11:58:47.869Z,101060.84
2022-09-03T12:01:18.129Z,101056.56
2022-09-03T12:04:03.347Z,101046.91
2022-09-03T12:06:56.778Z,101059.84
2022-09-03T12:10:12.870Z,101057.72
2022-09-03T12:13:24.256Z,101050.28
2022-09-03T12:16:21.263Z,101054.53
2022-09-03T12:18:52.894Z,101057.19
2022-09-03T12:21:21.370Z,101058.44
2022-09-03T12:23:51.405Z,101063.00
2022-09-03T12:26:28.086Z,101059.47
2022-09-03T12:29:00.206Z,101061.88
2022-09-03T12:31:35.026Z,101064.88
2022-09-03T12:34:16.776Z,101066.00
2022-09-03T12:36:47.428Z,101053.88
2022-09-03T12:39:17.930Z,101061.47
2022-09-03T12:42:08.339Z,101073.06
2022-09-03T12:44:35.817Z,101078.78
2022-09-03T12:50:08.870Z,101065.53
2022-09-03T12:53:02.430Z,101066.25
2022-09-03T12:55:41.981Z,101076.09
2022-09-03T12:58:21.712Z,101061.31
2022-09-03T13:00:56.265Z,101066.97
2022-09-03T13:03:34.413Z,101061.72
2022-09-03T13:06:10.478Z,101067.44
2022-09-03T13:08:50.485Z,101063.78
2022-09-03T13:11:22.007Z,101057.91
2022-09-03T13:14:05.839Z,101058.78
2022-09-03T13:16:46.532Z,101065.47
2022-09-03T13:19:26.796Z,101063.31
2022-09-03T13:21:57.610Z,101063.16
2022-09-03T13:24:40.549Z,101058.34
2022-09-03T13:27:24.574Z,101063.47
2022-09-03T13:30:23.143Z,101060.00
2022-09-03T13:33:16.609Z,101055.31
2022-09-03T13:36:10.082Z,101052.47
2022-09-03T13:39:03.343Z,101050.16
2022-09-03T13:41:46.005Z,101053.09
2022-09-03T13:44:23.690Z,101047.88
2022-09-03T13:47:02.109Z,101055.72
2022-09-03T13:50:02.312Z,101049.34
2022-09-03T13:52:42.991Z,101045.03
2022-09-03T13:55:14.453Z,101053.91
2022-09-03T13:57:56.355Z,101042.19
2022-09-03T14:00:41.218Z,101046.28
2022-09-03T14:03:17.982Z,101040.94
2022-09-03T14:06:01.536Z,101035.28
2022-09-03T14:08:55.422Z,101047.78
2022-09-03T14:11:55.744Z,101042.31
2022-09-03T14:14:38.317Z,101048.09
2022-09-03T14:17:27.880Z,101042.88
2022-09-03T14:20:04.929Z,101047.16
2022-09-03T14:23:10.111Z,101055.31
2022-09-03T14:25:42.795Z,101038.53
2022-09-03T14:28:26.937Z,101048.38
2022-09-03T14:31:18.406Z,101048.09
2022-09-03T14:33:58.512Z,101053.00
2022-09-03T14:37:05.197Z,101051.25
2022-09-03T14:39:33.144Z,101048.47
2022-09-03T14:42:07.949Z,101050.69
2022-09-03T14:45:03.339Z,101041.56
2022-09-03T14:47:55.878Z,101049.97
2022-09-03T14:50:42.271Z,101044.56
2022-09-03T14:53:34.655Z,101029.22
2022-09-03T14:56:31.171Z,101048.13
2022-09-03T14:59:20.481Z,101045.94
2022-09-03T15:02:14.525Z,101054.72
2022-09-03T15:04:44.797Z,101047.41
2022-09-03T15:07:32.942Z,101053.91
2022-09-03T15:10:00.890Z,101046.50
2022-09-03T15:12:37.180Z,101049.91
2022-09-03T15:15:31.827Z,101039.69
2022-09-03T15:18:17.342Z,101039.91
2022-09-03T15:20:54.066Z,101048.13
2022-09-03T15:23:26.863Z,101050.03
2022-09-03T15:26:33.433Z,101046.16
2022-09-03T15:29:10.121Z,101057.25
2022-09-03T15:32:08.054Z,101057.88
2022-09-03T15:34:50.731Z,101051.44
2022-09-03T15:37:28.622Z,101058.16
2022-09-03T15:40:37.764Z,101060.69
2022-09-03T15:43:16.788Z,101059.91
2022-09-03T15:45:52.117Z,101056.91
2022-09-03T15:48:39.246Z,101050.72
2022-09-03T15:51:14.328Z,101052.81
2022-09-03T15:54:03.418Z,101052.59
2022-09-03T15:57:10.810Z,101053.91
2022-09-03T15:59:53.571Z,101054.16
2022-09-03T16:02:41.942Z,101055.66
2022-09-03T16:05:20.397Z,101047.34
2022-09-03T16:08:08.178Z,101051.81
2022-09-03T16:11:03.080Z,101048.38
2022-09-03T16:13:46.589Z,101056.56
2022-09-03T16:16:22.394Z,101066.16
2022-09-03T16:19:11.058Z,101059.66
2022-09-03T16:21:45.453Z,101060.41
2022-09-03T16:24:24.098Z,101066.47
2022-09-03T16:27:12.317Z,101070.22
2022-09-03T16:29:40.027Z,101069.38
2022-09-03T16:32:31.966Z,101066.00
2022-09-03T16:35:24.826Z,101069.63
2022-09-03T16:38:14.731Z,101069.63
2022-09-03T16:41:23.546Z,101063.34
2022-09-03T16:44:17.800Z,101064.31
2022-09-03T16:46:54.058Z,101059.94
2022-09-03T16:49:49.253Z,101064.50
2022-09-03T16:52:38.464Z,101060.16
2022-09-03T16:55:22.219Z,101056.91
2022-09-03T16:58:12.028Z,101059.59
2022-09-03T17:01:03.147Z,101060.44
2022-09-03T17:04:11.708Z,101061.41
2022-09-03T17:06:39.815Z,101064.28
2022-09-03T17:09:37.880Z,101063.94
2022-09-03T17:12:16.604Z,101065.69
2022-09-03T17:14:47.594Z,101070.63
2022-09-03T17:17:28.774Z,101073.81
2022-09-03T17:20:20.020Z,101059.94
2022-09-03T17:22:53.510Z,101072.25
2022-09-03T17:25:40.967Z,101071.53
2022-09-03T17:28:25.538Z,101071.00
2022-09-03T17:31:04.117Z,101072.88
2022-09-03T17:33:50.180Z,101073.50
2022-09-03T17:36:27.278Z,101077.72
2022-09-03T17:39:12.910Z,101083.53
2022-09-03T17:42:03.061Z,101084.03
2022-09-03T17:44:57.957Z,101090.09
2022-09-03T17:48:02.997Z,101092.22
2022-09-03T17:50:44.714Z,101090.50
2022-09-03T17:53:21.998Z,101093.84
2022-09-03T17:56:01.422Z,101093.00
2022-09-03T17:58:52.165Z,101104.19
2022-09-03T18:01:27.478Z,101103.38
2022-09-03T18:03:55.079Z,101119.09
2022-09-03T18:06:42.854Z,101112.81
2022-09-03T18:09:28.586Z,101118.00
2022-09-03T18:12:22.122Z,101117.84
2022-09-03T18:15:00.626Z,101123.13
2022-09-03T18:17:35.056Z,101129.09
2022-09-03T18:20:32.770Z,101129.09
2022-09-03T18:23:17.783Z,101131.31
2022-09-03T18:26:08.209Z,101141.56
2022-09-03T18:29:25.964Z,101142.59
2022-09-03T18:32:11.031Z,101151.28
2022-09-03T18:34:57.218Z,101152.75
2022-09-03T18:37:45.500Z,101157.84
2022-09-03T18:40:41.369Z,101159.34
2022-09-03T18:43:58.153Z,101158.28
2022-09-03T18:48:01.686Z,101161.69
2022-09-03T18:50:13.868Z,101170.41
2022-09-03T18:53:18.221Z,101174.38
2022-09-03T18:56:12.413Z,101180.16
2022-09-03T18:59:09.941Z,101184.16
2022-09-03T19:01:59.909Z,101177.47
2022-09-03T19:04:56.177Z,101184.91
2022-09-03T19:08:00.178Z,101190.34
2022-09-03T19:11:01.955Z,101197.78
2022-09-03T19:13:58.493Z,101201.50
2022-09-03T19:17:24.973Z,101207.19
2022-09-03T19:20:10.043Z,101211.34
2022-09-03T19:22:59.902Z,101197.84
2022-09-03T19:25:47.281Z,101198.25
2022-09-03T19:28:34.565Z,101205.41
2022-09-03T19:31:44.581Z,101204.69
2022-09-03T19:34:47.132Z,101203.28
2022-09-03T19:37:31.887Z,101204.34
2022-09-03T19:40:35.611Z,101209.63
2022-09-03T19:43:34.908Z,101211.38
2022-09-03T19:46:41.734Z,101212.56
2022-09-03T19:49:42.199Z,101216.13
2022-09-03T19:52:33.257Z,101212.75
2022-09-03T19:55:19.242Z,101219.16
2022-09-03T19:58:26.132Z,101217.69
2022-09-03T20:01:16.620Z,101220.72
2022-09-03T20:04:01.651Z,101227.06
2022-09-03T20:06:50.448Z,101237.91
2022-09-03T20:09:39.302Z,101234.56
2022-09-03T20:12:10.190Z,101224.22
2022-09-03T20:14:38.211Z,101229.75
2022-09-03T20:17:05.791Z,101236.88
2022-09-03T20:19:51.181Z,101233.56
2022-09-03T20:22:18.614Z,101242.50
2022-09-03T20:25:05.064Z,101242.84
2022-09-03T20:27:40.776Z,101236.00
2022-09-03T20:30:13.654Z,101234.53
2022-09-03T20:33:01.245Z,101241.78
2022-09-03T20:35:37.211Z,101245.44
2022-09-03T20:38:29.902Z,101244.88
2022-09-03T20:41:31.381Z,101248.66
2022-09-03T20:44:17.282Z,101246.25
2022-09-03T20:47:21.332Z,101264.13
2022-09-03T20:49:54.935Z,101260.81
2022-09-03T20:52:46.550Z,101252.13
2022-09-03T20:55:27.177Z,101255.88
2022-09-03T20:58:25.182Z,101263.81
2022-09-03T21:01:09.341Z,101264.94
2022-09-03T21:04:11.396Z,101258.13
2022-09-03T21:06:58.654Z,101253.91
2022-09-03T21:09:38.203Z,101260.84
2022-09-03T21:12:26.157Z,101255.53
2022-09-03T21:15:05.975Z,101264.31
2022-09-03T21:17:52.459Z,101263.41
2022-09-03T21:20:42.722Z,101261.00
2022-09-03T21:23:16.295Z,101268.75
2022-09-03T21:25:49.915Z,101265.34
2022-09-03T21:28:32.502Z,101260.13
2022-09-03T21:31:15.814Z,101267.16
2022-09-03T21:33:48.663Z,101269.19
2022-09-03T21:36:22.342Z,101258.78
2022-09-03T21:39:16.857Z,101272.06
2022-09-03T21:41:50.577Z,101269.34
2022-09-03T21:44:25.591Z,101270.16
2022-09-03T21:47:00.669Z,101269.47
2022-09-03T21:49:36.854Z,101273.00
2022-09-03T21:52:09.805Z,101273.00
2022-09-03T21:54:37.400Z,101268.84
2022-09-03T21:57:26.155Z,101274.91
2022-09-03T22:00:04.028Z,101282.72
2022-09-03T22:02:33.195Z,101286.25
2022-09-03T22:05:03.084Z,101283.72
2022-09-03T22:07:53.236Z,101288.16
2022-09-03T22:10:45.551Z,101282.19
2022-09-03T22:13:21.766Z,101286.63
2022-09-03T22:15:51.616Z,101292.75
2022-09-03T22:18:29.051Z,101292.56
2022-09-03T22:21:13.129Z,101288.13
2022-09-03T22:24:19.006Z,101292.50
2022-09-03T22:27:00.727Z,101294.25
2022-09-03T22:29:31.304Z,101288.16
2022-09-03T22:32:10.361Z,101289.97
2022-09-03T22:34:59.356Z,101297.91
2022-09-03T22:37:43.398Z,101297.91
2022-09-03T22:40:25.751Z,101296.25
2022-09-03T22:43:01.801Z,101294.47
2022-09-03T22:45:55.859Z,101291.81
2022-09-03T22:48:45.423Z,101296.34
2022-09-03T22:51:13.678Z,101284.25
2022-09-03T22:53:53.002Z,101294.88
2022-09-03T22:56:22.876Z,101293.25
2022-09-03T22:58:59.378Z,101300.34
2022-09-03T23:01:36.191Z,101302.28
2022-09-03T23:04:39.681Z,101305.03
2022-09-03T23:07:52.674Z,101305.09
2022-09-03T23:10:31.979Z,101306.13
2022-09-03T23:13:11.946Z,101310.63
2022-09-03T23:15:42.057Z,101321.34
2022-09-03T23:18:17.551Z,101328.50
2022-09-03T23:20:55.878Z,101326.09
2022-09-03T23:23:30.766Z,101329.72
2022-09-03T23:26:23.636Z,101334.31
2022-09-03T23:29:00.418Z,101332.81
2022-09-03T23:31:28.981Z,101328.56
2022-09-03T23:33:57.281Z,101337.28
2022-09-03T23:37:05.841Z,101331.38
2022-09-03T23:39:55.765Z,101342.91
2022-09-03T23:42:54.261Z,101343.00
2022-09-03T23:45:48.230Z,101348.31
2022-09-03T23:48:46.606Z,101337.88
2022-09-03T23:51:19.853Z,101343.25
2022-09-03T23:53:55.425Z,101343.38
2022-09-03T23:56:25.778Z,101342.50
2022-09-03T23:59:30.561Z,101339.03
